Latest Weather Observations for Point Wilson

IDV60801

Issued at 8:31 am EDT Saturday 7 March 2015 (issued every 30 minutes, with the page automatically refreshed every 10 minutes)

About weather observations | Map of weather stations | Latest weather observations for VIC | Other Formats
Station Details ID: 087166 Name: POINT WILSON Lat: -38.10 Lon: 144.54 Height: 18.0 m
Data from the previous 72 hours. | See also: Recent months at Point Wilson
Date/Time
EDT
Temp
°C
App
Temp
°C
Dew
Point
Rel
Hum
%
Delta-T
°C
Wind Press
QNH
hPa
Press
MSL
hPa
Rain
since 9 am
mm
Dir
 
Spd
km/h
Gust
km/h
Spd
kts
Gust
kts
07/08:30am - - - - - NW 20 24 11 13 - - -
07/08:00am - - - - - WNW 26 35 14 19 - - -
07/07:30am - - - - - WNW 26 33 14 18 - - -
07/07:00am - - - - - WNW 26 33 14 18 - - -
07/06:30am - - - - - WNW 26 30 14 16 - - -
07/06:00am - - - - - WNW 24 30 13 16 - - -
07/05:30am - - - - - WNW 26 32 14 17 - - -
07/05:00am - - - - - WNW 22 28 12 15 - - -
07/04:30am - - - - - WNW 30 37 16 20 - - -
07/04:00am - - - - - WNW 26 33 14 18 - - -
07/03:30am - - - - - WNW 26 35 14 19 - - -
07/03:00am - - - - - WNW 24 30 13 16 - - -
07/02:30am - - - - - WNW 22 30 12 16 - - -
07/02:00am - - - - - WNW 24 32 13 17 - - -
07/01:30am - - - - - WNW 20 22 11 12 - - -
07/01:00am - - - - - W 24 32 13 17 - - -
07/12:30am - - - - - W 26 32 14 17 - - -
07/12:00am - - - - - WSW 24 30 13 16 - - -
 
Date/Time
EDT
Temp
°C
App
Temp
°C
Dew
Point
Rel
Hum
%
Delta-T
°C
Wind Press
QNH
hPa
Press
MSL
hPa
Rain
since 9 am
mm
Dir
 
Spd
km/h
Gust
km/h
Spd
kts
Gust
kts
06/11:30pm - - - - - W 20 26 11 14 - - -
06/11:00pm - - - - - W 30 35 16 19 - - -
06/10:30pm - - - - - W 28 37 15 20 - - -
06/10:00pm - - - - - WSW 26 30 14 16 - - -
06/09:30pm - - - - - SW 15 17 8 9 - - -
06/09:00pm - - - - - SW 17 19 9 10 - - -
06/08:30pm - - - - - SSW 20 24 11 13 - - -
06/08:00pm - - - - - SSW 22 26 12 14 - - -
06/07:30pm - - - - - SSW 26 30 14 16 - - -
06/07:00pm - - - - - SSW 32 35 17 19 - - -
06/06:30pm - - - - - SSW 35 39 19 21 - - -
06/06:00pm - - - - - SSW 35 39 19 21 - - -
06/05:30pm - - - - - SSW 39 43 21 23 - - -
06/05:00pm - - - - - SSW 37 43 20 23 - - -
06/04:30pm - - - - - SSW 37 43 20 23 - - -
06/04:00pm - - - - - SSW 37 43 20 23 - - -
06/03:30pm - - - - - SSW 35 43 19 23 - - -
06/03:00pm - - - - - SSW 37 43 20 23 - - -
06/02:30pm - - - - - SSW 30 35 16 19 - - -
06/02:00pm - - - - - SSW 30 33 16 18 - - -
06/01:30pm - - - - - SSW 26 28 14 15 - - -
06/01:00pm - - - - - SW 28 39 15 21 - - -
06/12:30pm - - - - - W 35 44 19 24 - - -
06/12:00pm - - - - - W 39 44 21 24 - - -
06/11:30am - - - - - W 37 46 20 25 - - -
06/11:00am - - - - - W 35 44 19 24 - - -
06/10:30am - - - - - W 41 50 22 27 - - -
06/10:00am - - - - - W 43 52 23 28 - - -
06/09:30am - - - - - W 44 56 24 30 - - -
06/09:00am - - - - - W 43 56 23 30 - - -
06/08:30am - - - - - W 46 56 25 30 - - -
06/08:00am - - - - - W 44 59 24 32 - - -
06/07:30am - - - - - W 46 59 25 32 - - -
06/07:00am - - - - - W 48 57 26 31 - - -
06/06:30am - - - - - W 48 61 26 33 - - -
06/06:00am - - - - - W 50 59 27 32 - - -
06/05:30am - - - - - W 50 61 27 33 - - -
06/05:00am - - - - - W 50 61 27 33 - - -
06/04:30am - - - - - W 46 63 25 34 - - -
06/04:00am - - - - - W 48 65 26 35 - - -
06/03:55am - - - - - W 46 65 25 35 - - -
06/03:30am - - - - - W 46 57 25 31 - - -
06/03:00am - - - - - W 46 54 25 29 - - -
06/02:30am - - - - - W 44 56 24 30 - - -
06/02:00am - - - - - W 43 56 23 30 - - -
06/01:30am - - - - - W 44 57 24 31 - - -
06/01:00am - - - - - WNW 44 56 24 30 - - -
06/12:30am - - - - - W 46 57 25 31 - - -
06/12:00am - - - - - W 46 57 25 31 - - -
 
Date/Time
EDT
Temp
°C
App
Temp
°C
Dew
Point
Rel
Hum
%
Delta-T
°C
Wind Press
QNH
hPa
Press
MSL
hPa
Rain
since 9 am
mm
Dir
 
Spd
km/h
Gust
km/h
Spd
kts
Gust
kts
05/11:30pm - - - - - W 50 63 27 34 - - -
05/11:00pm - - - - - W 46 57 25 31 - - -
05/10:30pm - - - - - W 41 50 22 27 - - -
05/10:00pm - - - - - W 39 50 21 27 - - -
05/09:30pm - - - - - W 35 50 19 27 - - -
05/09:00pm - - - - - W 33 44 18 24 - - -
05/08:30pm - - - - - W 39 48 21 26 - - -
05/08:00pm - - - - - WSW 37 54 20 29 - - -
05/07:55pm - - - - - WSW 35 54 19 29 - - -
05/07:30pm - - - - - WSW 32 43 17 23 - - -
05/07:00pm - - - - - WSW 37 46 20 25 - - -
05/06:30pm - - - - - WSW 39 50 21 27 - - -
05/06:00pm - - - - - WSW 37 46 20 25 - - -
05/05:30pm - - - - - WSW 35 43 19 23 - - -
05/05:00pm - - - - - WSW 33 50 18 27 - - -
05/04:30pm - - - - - SSW 26 32 14 17 - - -
05/04:00pm - - - - - SSW 30 33 16 18 - - -
05/03:30pm - - - - - SSW 32 39 17 21 - - -
05/03:00pm - - - - - SSW 28 35 15 19 - - -
05/02:30pm - - - - - SSW 30 37 16 20 - - -
05/02:00pm - - - - - SSW 28 39 15 21 - - -
05/01:30pm - - - - - SSW 33 43 18 23 - - -
05/01:00pm - - - - - SSW 33 41 18 22 - - -
05/12:30pm - - - - - SSW 41 50 22 27 - - -
05/12:00pm - - - - - SSW 41 52 22 28 - - -
05/11:30am - - - - - SW 43 59 23 32 - - -
05/11:26am - - - - - SW 39 59 21 32 - - -
05/11:00am - - - - - SW 46 56 25 30 - - -
05/10:30am - - - - - SW 43 56 23 30 - - -
05/10:00am - - - - - SW 48 56 26 30 - - -
05/09:30am - - - - - WSW 48 61 26 33 - - -
05/09:00am - - - - - WSW 46 56 25 30 - - -
05/08:30am - - - - - WSW 46 59 25 32 - - -
05/08:00am - - - - - WSW 48 57 26 31 - - -
05/07:30am - - - - - WSW 48 56 26 30 - - -
05/07:00am - - - - - WSW 41 50 22 27 - - -
05/06:30am - - - - - WSW 41 52 22 28 - - -
05/06:00am - - - - - WSW 39 48 21 26 - - -
05/05:30am - - - - - WSW 41 50 22 27 - - -
05/05:00am - - - - - WSW 48 56 26 30 - - -
05/04:30am - - - - - WSW 46 57 25 31 - - -
05/04:00am - - - - - WSW 50 61 27 33 - - -
05/03:52am - - - - - WSW 57 76 31 41 - - -
05/03:30am - - - - - WSW 59 76 32 41 - - -
05/03:03am - - - - - WSW 48 69 26 37 - - -
05/03:00am - - - - - WSW 46 63 25 34 - - -
05/02:54am - - - - - WSW 46 65 25 35 - - -
05/02:30am - - - - - WSW 46 61 25 33 - - -
05/02:24am - - - - - WSW 50 69 27 37 - - -
05/02:00am - - - - - W 52 65 28 35 - - -
05/01:30am - - - - - W 52 69 28 37 - - -
05/01:03am - - - - - W 52 70 28 38 - - -
05/01:00am - - - - - WNW 50 61 27 33 - - -
05/12:30am - - - - - WNW 41 54 22 29 - - -
05/12:00am - - - - - W 46 59 25 32 - - -
 
Date/Time
EDT
Temp
°C
App
Temp
°C
Dew
Point
Rel
Hum
%
Delta-T
°C
Wind Press
QNH
hPa
Press
MSL
hPa
Rain
since 9 am
mm
Dir
 
Spd
km/h
Gust
km/h
Spd
kts
Gust
kts
04/11:31pm - - - - - W 39 57 21 31 - - -
04/11:30pm - - - - - W 37 50 20 27 - - -
04/11:00pm - - - - - W 26 32 14 17 - - -
04/10:30pm - - - - - WSW 33 50 18 27 - - -
04/10:00pm - - - - - W 43 50 23 27 - - -
04/09:30pm - - - - - W 26 35 14 19 - - -
04/09:00pm - - - - - WSW 30 35 16 19 - - -
04/08:30pm - - - - - W 33 39 18 21 - - -
04/08:00pm - - - - - W 35 43 19 23 - - -
04/07:30pm - - - - - W 37 44 20 24 - - -
04/07:00pm - - - - - W 37 46 20 25 - - -
04/06:30pm - - - - - W 32 41 17 22 - - -
04/06:00pm - - - - - W 28 35 15 19 - - -
04/05:30pm - - - - - W 30 39 16 21 - - -
04/05:00pm - - - - - W 22 30 12 16 - - -
04/04:30pm - - - - - W 26 35 14 19 - - -
04/04:00pm - - - - - WSW 22 30 12 16 - - -
04/03:30pm - - - - - WSW 24 33 13 18 - - -
04/03:00pm - - - - - WSW 24 30 13 16 - - -
04/02:30pm - - - - - W 22 32 12 17 - - -
04/02:00pm - - - - - W 24 30 13 16 - - -
04/01:30pm - - - - - W 19 24 10 13 - - -
04/01:00pm - - - - - W 20 24 11 13 - - -
04/12:30pm - - - - - W 19 26 10 14 - - -
04/12:00pm - - - - - W 15 20 8 11 - - -
04/11:30am - - - - - WSW 19 28 10 15 - - -
04/11:00am - - - - - WSW 17 22 9 12 - - -
04/10:30am - - - - - W 19 24 10 13 - - -
04/10:00am - - - - - W 19 22 10 12 - - -
04/09:30am - - - - - WNW 22 28 12 15 - - -
04/09:00am - - - - - NW 22 26 12 14 - - -

Other Formats:

Comma delimited format used in spreadsheet applications
http://www.bom.gov.au/fwo/IDV60801/IDV60801.94847.axf

JavaScript Object Notation format (JSON) in row-major order
http://www.bom.gov.au/fwo/IDV60801/IDV60801.94847.json